Time;durP1;ratioP1;P1;durP2;ratioP2;P2;SDS_P1;SDS_P2;PMS_P1;PMS_P2;Temp;Humidity;BMP_temperature;BMP_pressure;BME280_temperature;BME280_humidity;BME280_pressure;Samples;Min_cycle;Max_cycle;Signal;HPM_P1;HPM_P2
2021/06/11 00:00:09;;;;;;;4.35;3.45;;;;;;;18.25;100.00;99996.88;1712678;82;20967;-42
2021/06/11 00:02:37;;;;;;;3.22;2.70;;;;;;;18.26;100.00;99995.87;1707156;82;20956;-41
2021/06/11 00:05:05;;;;;;;6.30;4.62;;;;;;;18.28;100.00;99996.56;1705306;82;20995;-42
2021/06/11 00:07:33;;;;;;;4.65;4.15;;;;;;;18.29;100.00;100001.80;1741829;80;21045;-45
2021/06/11 00:10:03;;;;;;;4.35;3.22;;;;;;;18.30;100.00;99999.47;1716698;82;20995;-46
2021/06/11 00:12:29;;;;;;;5.53;3.70;;;;;;;18.32;100.00;100001.52;1707323;82;20959;-44
2021/06/11 00:14:56;;;;;;;7.70;4.45;;;;;;;18.32;100.00;100008.73;1703991;82;21529;-45
2021/06/11 00:17:22;;;;;;;5.67;4.12;;;;;;;18.33;100.00;100005.06;1706455;82;20972;-46
2021/06/11 00:19:49;;;;;;;6.30;4.70;;;;;;;18.31;100.00;100001.66;1743537;80;20919;-45
2021/06/11 00:22:15;;;;;;;5.42;4.50;;;;;;;18.30;99.77;99998.12;1715273;82;21304;-45
2021/06/11 00:24:42;;;;;;;5.15;4.47;;;;;;;18.31;99.55;100003.84;1709424;82;20940;-45
2021/06/11 00:27:09;;;;;;;6.80;4.80;;;;;;;18.30;99.41;100004.02;1701895;82;21542;-45
2021/06/11 00:29:35;;;;;;;5.50;4.67;;;;;;;18.28;99.35;100001.97;1744776;80;20935;-44
2021/06/11 00:32:02;;;;;;;5.00;4.60;;;;;;;18.27;99.45;100006.99;1736856;80;21484;-44
2021/06/11 00:34:29;;;;;;;6.22;5.65;;;;;;;18.29;99.39;100007.70;1716294;82;20968;-45
2021/06/11 00:36:56;;;;;;;5.53;4.95;;;;;;;18.30;99.35;100008.06;1710892;82;20967;-45
2021/06/11 00:39:22;;;;;;;6.28;4.80;;;;;;;18.31;99.47;100011.10;1710003;82;21005;-42
2021/06/11 00:41:49;;;;;;;7.70;4.70;;;;;;;18.31;99.39;100010.59;1713392;82;21023;-45
2021/06/11 00:44:15;;;;;;;5.58;5.08;;;;;;;18.31;99.41;100011.10;1713866;82;21015;-43
2021/06/11 00:46:42;;;;;;;6.17;4.78;;;;;;;18.30;99.57;100011.61;1698942;82;21023;-44
2021/06/11 00:49:09;;;;;;;5.85;4.75;;;;;;;18.30;99.72;100007.56;1737187;80;20974;-41
2021/06/11 00:51:35;;;;;;;5.67;5.08;;;;;;;18.31;99.75;100012.45;1714053;82;21546;-42
2021/06/11 00:54:02;;;;;;;5.83;4.90;;;;;;;18.30;99.79;100012.96;1705142;82;20959;-44
2021/06/11 00:56:30;;;;;;;5.33;4.83;;;;;;;18.31;99.79;100011.95;1706435;82;21926;-43
2021/06/11 00:58:57;;;;;;;4.90;4.50;;;;;;;18.33;99.92;100013.16;1745180;80;20990;-41
2021/06/11 01:01:23;;;;;;;6.90;6.22;;;;;;;18.34;99.97;100012.14;1720155;82;20940;-46
2021/06/11 01:03:50;;;;;;;7.50;6.80;;;;;;;18.33;99.83;100014.50;1707133;82;21441;-42
2021/06/11 01:06:17;;;;;;;10.43;9.33;;;;;;;18.31;99.68;100015.15;1713946;82;21004;-44
2021/06/11 01:08:43;;;;;;;10.93;9.88;;;;;;;18.29;99.71;100012.59;1685700;82;20980;-41
2021/06/11 01:11:12;;;;;;;11.10;9.90;;;;;;;18.27;99.66;100011.05;1705373;82;20980;-42
2021/06/11 01:13:40;;;;;;;10.45;9.35;;;;;;;18.24;99.70;100014.89;1682739;82;21027;-42
2021/06/11 01:16:06;;;;;;;9.25;8.35;;;;;;;18.21;99.75;100012.50;1700829;82;20987;-44
2021/06/11 01:18:33;;;;;;;8.55;7.75;;;;;;;18.19;99.79;100011.80;1698922;82;20964;-44
2021/06/11 01:20:59;;;;;;;7.58;6.87;;;;;;;18.18;99.95;100024.11;1704241;82;20980;-44
2021/06/11 01:24:16;;;;;;;7.42;6.37;;;;;;;18.14;100.00;100028.94;1684507;82;20942;-45
2021/06/11 01:26:53;;;;;;;8.23;6.75;;;;;;;18.11;100.00;100018.45;1705428;82;20984;-45
2021/06/11 01:29:24;;;;;;;12.05;7.25;;;;;;;18.10;100.00;100023.51;1706062;82;21768;-43
2021/06/11 01:31:54;;;;;;;6.87;5.95;;;;;;;18.06;100.00;100031.03;1700674;82;21271;-44
2021/06/11 01:34:32;;;;;;;7.72;6.92;;;;;;;18.03;100.00;100031.33;1695616;82;20932;-42
2021/06/11 01:37:16;;;;;;;7.60;6.60;;;;;;;18.01;100.00;100028.44;1707277;82;21012;-44
2021/06/11 01:39:44;;;;;;;6.35;5.80;;;;;;;18.00;100.00;100025.40;1618281;86;21165;-43
2021/06/11 01:42:11;;;;;;;6.10;5.60;;;;;;;18.00;100.00;100031.63;1642081;85;21111;-41
2021/06/11 01:44:38;;;;;;;5.95;5.30;;;;;;;18.01;100.00;100031.13;1646353;85;21062;-41
2021/06/11 01:47:05;;;;;;;5.50;5.00;;;;;;;18.01;100.00;100028.44;1624256;85;20980;-44
2021/06/11 01:49:31;;;;;;;6.20;4.62;;;;;;;18.01;100.00;100027.08;1626234;85;20988;-43
2021/06/11 01:51:59;;;;;;;6.05;4.45;;;;;;;17.99;100.00;100029.92;1638351;85;20932;-42
2021/06/11 01:54:26;;;;;;;5.08;3.70;;;;;;;18.01;100.00;100031.13;1643587;85;20968;-46
2021/06/11 01:56:52;;;;;;;6.22;3.33;;;;;;;18.02;100.00;100032.84;1637880;85;21514;-44
2021/06/11 01:59:19;;;;;;;4.30;3.30;;;;;;;18.01;100.00;100032.48;1648013;85;20963;-46
2021/06/11 02:01:46;;;;;;;3.60;2.87;;;;;;;18.00;100.00;100026.24;1644536;85;21011;-41
2021/06/11 02:04:13;;;;;;;3.25;2.95;;;;;;;17.99;100.00;100030.42;1640223;85;21020;-39
2021/06/11 02:06:40;;;;;;;3.20;2.87;;;;;;;17.93;100.00;100028.67;1639320;85;21016;-43
2021/06/11 02:09:08;;;;;;;3.72;3.05;;;;;;;17.90;100.00;100031.67;1641790;85;21075;-40
2021/06/11 02:11:35;;;;;;;3.37;2.58;;;;;;;17.91;100.00;100031.16;1654454;84;20978;-41
2021/06/11 02:14:02;;;;;;;2.60;2.40;;;;;;;17.93;100.00;100028.67;1678845;83;21485;-41
2021/06/11 02:16:29;;;;;;;4.33;2.37;;;;;;;17.93;100.00;100030.52;1663899;82;20932;-44
2021/06/11 02:19:01;;;;;;;4.50;3.27;;;;;;;17.93;100.00;100032.72;1697815;82;21003;-46
2021/06/11 02:21:28;;;;;;;3.27;2.47;;;;;;;17.91;100.00;100033.36;1716305;82;21000;-45
2021/06/11 02:23:55;;;;;;;6.08;3.35;;;;;;;17.90;100.00;100036.22;1711067;82;20931;-41
2021/06/11 02:26:22;;;;;;;3.30;2.70;;;;;;;17.89;100.00;100035.38;1711306;82;21008;-43
2021/06/11 02:28:50;;;;;;;4.45;2.42;;;;;;;17.87;100.00;100035.17;1705902;82;21258;-43
2021/06/11 02:31:18;;;;;;;3.80;3.02;;;;;;;17.85;100.00;100038.00;1705416;82;21016;-43
2021/06/11 02:33:44;;;;;;;4.78;3.22;;;;;;;17.85;100.00;100041.20;1738839;80;20966;-42
2021/06/11 02:36:11;;;;;;;2.83;2.52;;;;;;;17.82;100.00;100042.35;1717192;82;20948;-43
2021/06/11 02:38:37;;;;;;;5.70;3.90;;;;;;;17.79;100.00;100044.44;1713308;82;21438;-42
2021/06/11 02:41:05;;;;;;;5.75;3.35;;;;;;;17.77;100.00;100042.41;1713176;82;21019;-41
2021/06/11 02:43:31;;;;;;;3.45;2.77;;;;;;;17.77;100.00;100035.67;1746405;80;21037;-40
2021/06/11 02:46:18;;;;;;;3.87;3.40;;;;;;;17.77;100.00;100047.30;1717469;82;20976;-46
2021/06/11 02:48:55;;;;;;;3.72;2.87;;;;;;;17.74;100.00;100037.66;1723378;82;21427;-44
2021/06/11 02:51:33;;;;;;;3.22;2.67;;;;;;;17.75;100.00;100041.20;1692151;83;21545;-45
2021/06/11 02:54:01;;;;;;;4.67;2.83;;;;;;;17.79;100.00;100046.66;1721876;82;21521;-45
2021/06/11 02:56:41;;;;;;;4.97;3.30;;;;;;;17.81;100.00;100049.22;1715177;82;21048;-44
2021/06/11 02:59:30;;;;;;;3.72;3.02;;;;;;;17.82;100.00;100053.64;1752602;80;20994;-42
2021/06/11 03:02:07;;;;;;;3.60;3.00;;;;;;;17.78;100.00;100047.64;1748229;80;20932;-42
2021/06/11 03:04:34;;;;;;;3.75;2.77;;;;;;;17.79;100.00;100055.22;1760878;80;21006;-46
2021/06/11 03:07:00;;;;;;;3.17;2.70;;;;;;;17.80;100.00;100048.38;1715058;82;20944;-47
2021/06/11 03:09:27;;;;;;;3.70;2.98;;;;;;;17.83;100.00;100049.94;1741594;81;21565;-42
2021/06/11 03:11:57;;;;;;;4.45;3.15;;;;;;;17.86;100.00;100054.52;1749196;80;20961;-44
2021/06/11 03:14:25;;;;;;;3.02;2.65;;;;;;;17.91;100.00;100052.73;1738750;81;20990;-45
2021/06/11 03:16:55;;;;;;;3.25;2.95;;;;;;;17.94;100.00;100052.44;1739992;81;21259;-45
2021/06/11 03:19:22;;;;;;;3.50;3.15;;;;;;;18.00;100.00;100051.02;1746687;80;20963;-43
2021/06/11 03:21:51;;;;;;;4.60;3.30;;;;;;;18.05;100.00;100050.08;1748037;80;21482;-42
2021/06/11 03:24:39;;;;;;;5.00;3.85;;;;;;;18.10;100.00;100057.23;1746606;81;20935;-42
2021/06/11 03:27:24;;;;;;;5.60;4.72;;;;;;;18.12;100.00;100057.94;1722711;81;21502;-41
2021/06/11 03:30:12;;;;;;;6.15;5.53;;;;;;;18.14;100.00;100059.95;1707404;82;21304;-42
2021/06/11 03:32:56;;;;;;;7.37;6.67;;;;;;;18.15;100.00;100064.37;1730999;81;21408;-44
2021/06/11 03:35:36;;;;;;;6.75;6.05;;;;;;;18.18;100.00;100068.63;1717960;82;20983;-42
2021/06/11 03:38:08;;;;;;;6.35;5.75;;;;;;;18.18;100.00;100062.72;1690387;83;20955;-42
2021/06/11 03:40:38;;;;;;;6.20;5.47;;;;;;;18.20;100.00;100067.48;1738790;80;21010;-42
2021/06/11 03:43:05;;;;;;;6.50;5.80;;;;;;;18.21;100.00;100074.56;1737784;80;21040;-43
2021/06/11 03:45:32;;;;;;;8.35;6.20;;;;;;;18.22;100.00;100072.23;1718844;80;21014;-42
2021/06/11 03:48:01;;;;;;;7.37;5.25;;;;;;;18.21;100.00;100074.56;1721398;80;21466;-43
2021/06/11 03:50:27;;;;;;;6.20;5.60;;;;;;;18.22;100.00;100070.88;1736516;80;20942;-42
2021/06/11 03:52:57;;;;;;;7.08;6.37;;;;;;;18.21;100.00;100065.12;1744521;80;20946;-45
2021/06/11 03:55:30;;;;;;;5.73;5.23;;;;;;;18.22;100.00;100064.61;1743453;80;20958;-43
2021/06/11 03:58:03;;;;;;;8.55;6.60;;;;;;;18.21;100.00;100061.07;1739195;80;20939;-46
2021/06/11 04:00:30;;;;;;;6.85;5.80;;;;;;;18.20;100.00;100064.78;1737064;80;20938;-44
2021/06/11 04:02:59;;;;;;;6.20;5.50;;;;;;;18.21;100.00;100055.67;1742697;80;20991;-42
2021/06/11 04:05:26;;;;;;;6.37;5.55;;;;;;;18.22;100.00;100068.66;1721997;80;20926;-41
2021/06/11 04:07:57;;;;;;;7.03;6.42;;;;;;;18.21;100.00;100068.32;1738082;80;21583;-47
2021/06/11 04:10:48;;;;;;;8.23;5.85;;;;;;;18.22;100.00;100072.23;1743893;80;20966;-42
2021/06/11 04:13:20;;;;;;;;;;;;;;;18.23;100.00;100070.38;1743979;80;21006;-43
2021/06/11 04:15:49;;;;;;;7.35;6.03;;;;;;;18.23;100.00;100074.42;1745484;80;20107;-43
2021/06/11 04:18:22;;;;;;;11.18;5.83;;;;;;;18.23;100.00;100077.97;1735840;80;20978;-40
2021/06/11 04:20:52;;;;;;;7.33;5.70;;;;;;;18.24;100.00;100076.95;1706006;82;21538;-40
2021/06/11 04:23:23;;;;;;;5.90;5.30;;;;;;;18.26;100.00;100075.47;1657517;82;20973;-42
2021/06/11 04:25:51;;;;;;;5.42;4.67;;;;;;;18.29;100.00;100077.36;1699861;82;20983;-42
2021/06/11 04:28:18;;;;;;;5.30;4.80;;;;;;;18.31;100.00;100078.06;1697452;82;20944;-41
2021/06/11 04:30:45;;;;;;;6.58;4.62;;;;;;;18.32;100.00;100080.25;1705544;82;21535;-42
2021/06/11 04:33:24;;;;;;;5.67;5.03;;;;;;;18.34;100.00;100083.19;1714722;82;20965;-40
2021/06/11 04:35:51;;;;;;;6.05;4.72;;;;;;;18.33;100.00;100078.77;1707229;82;20979;-42
2021/06/11 04:38:18;;;;;;;5.87;4.97;;;;;;;18.26;100.00;100076.31;1701493;82;21542;-43
2021/06/11 04:40:45;;;;;;;6.08;5.50;;;;;;;18.23;100.00;100079.31;1705725;82;20995;-41
2021/06/11 04:43:12;;;;;;;5.83;4.47;;;;;;;18.23;100.00;100083.36;1711990;82;21023;-42
2021/06/11 04:45:39;;;;;;;6.85;4.12;;;;;;;18.22;100.00;100083.50;1711924;82;20945;-41
2021/06/11 04:48:06;;;;;;;4.40;4.00;;;;;;;18.22;100.00;100080.33;1706831;82;21486;-43
2021/06/11 04:50:32;;;;;;;4.10;3.15;;;;;;;18.23;100.00;100082.02;1708733;82;20992;-41
2021/06/11 04:52:59;;;;;;;5.33;3.72;;;;;;;18.24;100.00;100081.00;1714394;82;21004;-40
2021/06/11 04:55:26;;;;;;;4.50;4.05;;;;;;;18.23;100.00;100077.97;1713193;82;20995;-41
2021/06/11 04:57:54;;;;;;;5.08;4.55;;;;;;;18.21;100.00;100077.26;1707245;82;20956;-40
2021/06/11 05:00:22;;;;;;;5.92;3.60;;;;;;;18.22;100.00;100074.05;1709411;82;20984;-41
2021/06/11 05:02:49;;;;;;;3.83;3.10;;;;;;;18.23;100.00;100079.31;1689819;82;20952;-40
2021/06/11 05:05:15;;;;;;;4.15;3.65;;;;;;;18.23;100.00;100075.27;1711045;82;20936;-41
2021/06/11 05:07:42;;;;;;;4.42;3.50;;;;;;;18.22;100.00;100075.41;1715241;82;20966;-42
2021/06/11 05:10:10;;;;;;;6.50;3.37;;;;;;;18.23;100.00;100075.27;1718358;82;20953;-41
2021/06/11 05:12:36;;;;;;;3.75;3.42;;;;;;;18.27;100.00;100079.85;1716759;82;21739;-43
2021/06/11 05:15:04;;;;;;;4.67;3.27;;;;;;;18.32;100.00;100081.13;1722681;82;20952;-41
2021/06/11 05:17:31;;;;;;;3.60;3.30;;;;;;;18.35;100.00;100082.68;1715628;82;20960;-42
2021/06/11 05:19:58;;;;;;;3.65;3.10;;;;;;;18.38;100.00;100087.77;1750843;80;20931;-42
2021/06/11 05:22:25;;;;;;;8.85;4.35;;;;;;;18.40;100.00;100080.38;1739522;80;21367;-43
2021/06/11 05:24:51;;;;;;;4.70;3.70;;;;;;;18.41;100.00;100081.23;1715299;82;21471;-43
2021/06/11 05:27:18;;;;;;;4.25;3.42;;;;;;;18.40;100.00;100078.19;1714962;82;21304;-44
2021/06/11 05:29:44;;;;;;;5.12;4.62;;;;;;;18.41;100.00;100077.17;1722145;82;20976;-42
2021/06/11 05:32:11;;;;;;;4.28;3.52;;;;;;;18.41;100.00;100074.48;1722381;82;20940;-41
2021/06/11 05:34:37;;;;;;;4.05;3.50;;;;;;;18.46;100.00;100084.33;1724011;82;20985;-41
2021/06/11 05:37:05;;;;;;;8.63;3.70;;;;;;;18.49;100.00;100079.46;1718490;82;20936;-41
2021/06/11 05:39:32;;;;;;;4.20;3.27;;;;;;;18.55;100.00;100078.03;1707667;82;20940;-41
2021/06/11 05:41:58;;;;;;;3.52;2.95;;;;;;;18.63;100.00;100084.87;1743576;80;21049;-41
2021/06/11 05:44:26;;;;;;;5.55;3.37;;;;;;;18.71;100.00;100090.86;1709211;82;21006;-40
2021/06/11 05:46:52;;;;;;;5.08;2.87;;;;;;;18.78;100.00;100086.59;1751670;80;20950;-39
2021/06/11 05:49:28;;;;;;;3.77;3.37;;;;;;;18.85;100.00;100084.11;1752959;80;20962;-40
2021/06/11 05:51:59;;;;;;;3.22;2.92;;;;;;;18.89;100.00;100085.52;1754773;80;21758;-40
2021/06/11 05:54:26;;;;;;;3.92;3.20;;;;;;;18.95;100.00;100084.89;1754669;80;21438;-41
2021/06/11 05:56:53;;;;;;;4.25;3.33;;;;;;;19.01;100.00;100087.84;1724227;82;20968;-42
2021/06/11 05:59:19;;;;;;;3.40;2.90;;;;;;;19.08;100.00;100089.44;1701711;82;21408;-41
2021/06/11 06:01:46;;;;;;;3.52;2.83;;;;;;;19.15;100.00;100092.35;1751072;80;20943;-41
2021/06/11 06:04:16;;;;;;;4.10;3.05;;;;;;;19.19;100.00;100097.80;1751028;80;20934;-44
2021/06/11 06:06:43;;;;;;;2.80;2.60;;;;;;;19.21;99.30;100098.51;1750560;80;20970;-40
2021/06/11 06:09:11;;;;;;;4.28;3.22;;;;;;;19.22;98.72;100096.98;1713945;82;21004;-39
2021/06/11 06:11:38;;;;;;;4.80;2.90;;;;;;;19.21;97.30;100098.51;1751772;80;20931;-39
2021/06/11 06:14:05;;;;;;;3.35;3.05;;;;;;;19.18;97.81;100104.23;1714802;82;20963;-39
2021/06/11 06:16:31;;;;;;;7.03;3.08;;;;;;;19.18;98.07;100105.07;1750698;80;20998;-39
2021/06/11 06:18:58;;;;;;;3.83;3.42;;;;;;;19.21;98.26;100104.75;1713840;82;21438;-39
2021/06/11 06:21:25;;;;;;;4.17;3.30;;;;;;;19.22;98.34;100105.09;1753963;80;20951;-42
2021/06/11 06:23:51;;;;;;;3.72;3.37;;;;;;;19.26;98.36;100114.27;1750230;80;20965;-42
2021/06/11 06:26:18;;;;;;;4.80;3.37;;;;;;;19.26;97.24;100108.86;1750799;80;20996;-40
2021/06/11 06:28:45;;;;;;;3.80;3.30;;;;;;;19.23;96.42;100116.27;1716109;82;20988;-41
2021/06/11 06:31:20;;;;;;;3.22;2.92;;;;;;;19.21;96.48;100112.86;1751089;80;21450;-39
2021/06/11 06:33:47;;;;;;;5.65;3.83;;;;;;;19.18;96.63;100110.48;1720524;82;21026;-39
2021/06/11 06:36:13;;;;;;;5.08;3.40;;;;;;;19.18;96.95;100113.17;1724296;82;20970;-39
2021/06/11 06:38:40;;;;;;;3.62;3.30;;;;;;;19.18;96.36;100118.58;1708548;82;20955;-38
2021/06/11 06:41:08;;;;;;;3.90;3.58;;;;;;;19.21;96.09;100116.07;1713692;82;21487;-40
2021/06/11 06:43:35;;;;;;;4.28;3.65;;;;;;;19.22;95.54;100116.41;1756084;80;21006;-40
2021/06/11 06:46:02;;;;;;;5.72;3.85;;;;;;;19.22;95.78;100109.14;1714330;82;21517;-42
2021/06/11 06:48:30;;;;;;;6.75;4.83;;;;;;;19.22;95.37;100117.25;1723849;82;20962;-41
2021/06/11 06:50:58;;;;;;;4.60;3.87;;;;;;;19.21;95.13;100118.78;1725910;82;20944;-41
2021/06/11 06:53:25;;;;;;;4.03;3.60;;;;;;;19.20;94.47;100117.94;1725454;82;21448;-40
2021/06/11 06:55:52;;;;;;;4.53;3.98;;;;;;;19.22;94.62;100115.90;1709546;82;20959;-40
2021/06/11 06:58:19;;;;;;;5.03;4.47;;;;;;;19.27;94.33;100114.09;1745911;80;20956;-39
2021/06/11 07:00:48;;;;;;;8.35;5.30;;;;;;;19.33;93.82;100109.95;1720989;82;20996;-37
2021/06/11 07:03:18;;;;;;;4.65;3.85;;;;;;;19.40;94.48;100112.34;1694290;83;20995;-41
2021/06/11 07:05:45;;;;;;;4.83;3.92;;;;;;;19.48;92.18;100100.27;1727484;82;20967;-39
2021/06/11 07:08:12;;;;;;;6.83;5.90;;;;;;;19.54;90.94;100109.09;1710119;82;20960;-39
2021/06/11 07:10:38;;;;;;;4.67;3.60;;;;;;;19.57;90.08;100102.02;1753405;80;20919;-40
2021/06/11 07:13:06;;;;;;;6.17;3.52;;;;;;;19.61;89.45;100102.06;1756396;80;20928;-41
2021/06/11 07:15:33;;;;;;;6.90;3.22;;;;;;;19.65;90.16;100106.16;1758786;80;20951;-41
2021/06/11 07:18:00;;;;;;;5.28;3.25;;;;;;;19.71;89.44;100102.52;1758462;80;20994;-40
2021/06/11 07:20:27;;;;;;;5.85;3.30;;;;;;;19.76;88.00;100104.23;1764014;80;20962;-38
2021/06/11 07:22:53;;;;;;;4.97;2.85;;;;;;;19.77;88.15;100101.36;1727698;81;20999;-38
2021/06/11 07:25:20;;;;;;;5.37;3.08;;;;;;;19.79;87.20;100103.92;1726299;81;20920;-39
2021/06/11 07:27:47;;;;;;;5.78;4.00;;;;;;;19.79;84.86;100101.21;1760224;80;21238;-36
2021/06/11 07:30:15;;;;;;;5.12;3.33;;;;;;;19.78;85.40;100098.14;1760399;80;20956;-37
2021/06/11 07:32:43;;;;;;;4.28;3.87;;;;;;;19.77;85.21;100100.52;1764602;80;20984;-39
2021/06/11 07:35:11;;;;;;;3.05;2.77;;;;;;;19.80;86.22;100102.38;1736702;81;20900;-38
2021/06/11 07:37:38;;;;;;;5.10;3.00;;;;;;;19.85;85.01;100105.97;1728540;81;20967;-38
2021/06/11 07:40:06;;;;;;;3.60;2.80;;;;;;;19.89;84.79;100106.86;1725991;82;20951;-40
2021/06/11 07:42:32;;;;;;;4.55;3.62;;;;;;;19.90;83.83;100107.70;1757554;80;21081;-41
2021/06/11 07:44:59;;;;;;;5.42;3.42;;;;;;;19.90;83.10;100100.94;1730461;81;20997;-38
2021/06/11 07:47:25;;;;;;;3.70;3.30;;;;;;;19.87;82.80;100102.10;1731004;81;21038;-41
2021/06/11 07:49:52;;;;;;;4.72;2.98;;;;;;;19.85;82.97;100106.81;1728314;81;21036;-38
2021/06/11 07:52:18;;;;;;;4.30;3.00;;;;;;;19.84;81.90;100104.29;1735542;81;20971;-39
2021/06/11 07:54:45;;;;;;;4.30;2.50;;;;;;;19.82;81.31;100100.89;1728840;81;20982;-40
2021/06/11 07:57:12;;;;;;;4.47;2.60;;;;;;;19.79;80.65;100102.56;1727508;81;20978;-40
2021/06/11 07:59:41;;;;;;;7.53;2.83;;;;;;;19.77;81.08;100104.06;1731559;81;21287;-39
2021/06/11 08:02:07;;;;;;;3.52;2.90;;;;;;;19.78;81.82;100099.02;1731492;81;20959;-39
2021/06/11 08:04:33;;;;;;;5.97;3.30;;;;;;;19.84;82.40;100100.23;1729026;81;21012;-39
2021/06/11 08:07:00;;;;;;;4.15;2.50;;;;;;;19.86;80.74;100103.63;1726488;81;20955;-40
2021/06/11 08:09:29;;;;;;;3.65;2.75;;;;;;;19.88;79.65;100106.52;1740735;81;21006;-40
2021/06/11 08:11:56;;;;;;;5.03;2.72;;;;;;;19.89;79.09;100101.95;1733412;81;21014;-39
2021/06/11 08:14:22;;;;;;;5.70;2.95;;;;;;;19.93;81.11;100113.30;1731602;81;20939;-40
2021/06/11 08:16:51;;;;;;;4.05;2.70;;;;;;;20.00;82.86;100117.06;1728188;81;20959;-40
2021/06/11 08:19:17;;;;;;;3.17;2.87;;;;;;;20.08;81.48;100113.92;1709132;82;21012;-39
2021/06/11 08:21:44;;;;;;;3.02;2.72;;;;;;;20.15;80.41;100104.64;1710800;82;20952;-41
2021/06/11 08:24:11;;;;;;;3.67;2.40;;;;;;;20.21;79.69;100104.02;1710245;82;21442;-40
2021/06/11 08:26:38;;;;;;;3.92;2.70;;;;;;;20.26;79.75;100110.27;1702184;82;21040;-39
2021/06/11 08:29:04;;;;;;;4.15;2.90;;;;;;;20.29;76.93;100108.63;1696182;82;21024;-40
2021/06/11 08:31:31;;;;;;;4.30;2.77;;;;;;;20.29;76.03;100104.56;1705677;82;20988;-41
2021/06/11 08:33:57;;;;;;;5.42;2.92;;;;;;;20.31;75.65;100107.45;1699445;82;20964;-42
2021/06/11 08:36:25;;;;;;;6.20;2.70;;;;;;;20.33;75.80;100112.68;1709645;82;20949;-40
2021/06/11 08:38:53;;;;;;;3.60;2.70;;;;;;;20.36;76.77;100106.97;1703583;82;20983;-40
2021/06/11 08:41:19;;;;;;;4.10;2.50;;;;;;;20.38;75.29;100103.57;1693432;82;21007;-40
2021/06/11 08:43:46;;;;;;;3.62;2.70;;;;;;;20.37;74.78;100103.23;1682085;82;21118;-40
2021/06/11 08:46:12;;;;;;;3.65;2.27;;;;;;;20.37;75.61;100107.81;1690942;82;21427;-39
2021/06/11 08:48:39;;;;;;;6.20;2.77;;;;;;;20.42;75.61;100108.17;1704719;82;21350;-37
2021/06/11 08:51:09;;;;;;;4.20;2.62;;;;;;;20.48;75.42;100108.35;1662692;84;20960;-40
2021/06/11 08:53:39;;;;;;;2.70;2.08;;;;;;;20.55;73.91;100105.05;1699002;82;21011;-39
2021/06/11 08:56:06;;;;;;;3.00;2.33;;;;;;;20.61;72.23;100102.50;1716614;82;21009;-38
2021/06/11 08:58:39;;;;;;;3.72;2.40;;;;;;;20.63;73.01;100105.06;1708087;82;21601;-38
2021/06/11 09:01:07;;;;;;;4.08;2.50;;;;;;;20.66;73.64;100104.25;1707948;82;20964;-40
2021/06/11 09:03:52;;;;;;;4.17;3.58;;;;;;;20.68;73.03;100104.91;1698126;82;20917;-38
2021/06/11 09:06:18;;;;;;;3.83;2.90;;;;;;;20.70;71.71;100092.56;1695132;82;20996;-41
2021/06/11 09:08:56;;;;;;;5.67;2.40;;;;;;;20.70;70.86;100099.34;1704499;82;20993;-39
2021/06/11 09:11:30;;;;;;;4.87;2.72;;;;;;;20.69;70.39;100103.08;1703059;82;20964;-38
2021/06/11 09:14:08;;;;;;;6.00;2.92;;;;;;;20.66;70.30;100098.83;1707183;82;20969;-40
2021/06/11 09:16:47;;;;;;;3.65;2.70;;;;;;;20.65;70.17;100100.34;1706652;82;20960;-39
2021/06/11 09:19:19;;;;;;;3.02;2.37;;;;;;;20.63;70.84;100092.36;1722308;82;20971;-39
2021/06/11 09:21:44;;;;;;;5.22;2.60;;;;;;;20.67;71.25;100096.97;1715162;82;21020;-39
2021/06/11 09:24:30;;;;;;;4.83;2.30;;;;;;;20.73;72.30;100095.78;1706915;82;21728;-40
2021/06/11 09:27:07;;;;;;;2.92;2.20;;;;;;;20.82;73.03;100093.12;1709330;82;21020;-40
2021/06/11 09:29:46;;;;;;;5.10;2.60;;;;;;;20.87;71.73;100090.25;1710579;82;20972;-39
2021/06/11 09:32:23;;;;;;;3.00;2.27;;;;;;;20.92;71.98;100089.75;1708817;82;21513;-40
2021/06/11 09:34:52;;;;;;;3.98;2.42;;;;;;;20.92;71.26;100088.40;1707781;82;20969;-37
2021/06/11 09:37:22;;;;;;;3.55;2.75;;;;;;;20.93;71.62;100094.15;1692112;83;20939;-38
2021/06/11 09:39:54;;;;;;;4.58;2.62;;;;;;;20.88;70.71;100090.58;1707439;82;20963;-38
2021/06/11 09:42:28;;;;;;;4.10;2.85;;;;;;;20.82;70.87;100085.83;1714749;82;20992;-39
2021/06/11 09:45:05;;;;;;;2.87;2.27;;;;;;;20.78;71.97;100089.88;1706988;82;21608;-40
2021/06/11 09:47:47;;;;;;;2.98;2.52;;;;;;;20.75;70.87;100085.63;1707396;82;21007;-38
2021/06/11 09:50:36;;;;;;;3.58;2.47;;;;;;;20.74;69.87;100090.72;1710663;82;20959;-38
2021/06/11 09:53:09;;;;;;;3.45;2.70;;;;;;;20.78;69.41;100084.45;1720936;82;20980;-40
2021/06/11 09:58:50;;;;;;;3.75;2.40;;;;;;;20.98;69.96;100080.11;1799051;77;23037;-39
2021/06/11 10:01:17;;;;;;;3.20;2.58;;;;;;;21.01;67.85;100083.83;1777013;78;20956;-39
2021/06/11 10:03:47;;;;;;;5.45;2.72;;;;;;;21.05;69.65;100082.49;1776931;79;20954;-39
2021/06/11 10:06:15;;;;;;;2.72;2.47;;;;;;;21.13;67.82;100084.70;1777390;79;21010;-39
2021/06/11 10:08:44;;;;;;;4.80;2.37;;;;;;;21.22;65.36;100074.72;1777598;79;20955;-40
2021/06/11 10:11:13;;;;;;;2.75;2.27;;;;;;;21.30;67.00;100080.66;1777389;79;20951;-39
2021/06/11 10:13:42;;;;;;;2.20;2.00;;;;;;;21.38;65.47;100083.36;1777946;80;20950;-40
2021/06/11 10:16:11;;;;;;;4.60;2.50;;;;;;;21.48;64.48;100073.22;1773240;78;20992;-40
2021/06/11 10:18:38;;;;;;;3.67;2.55;;;;;;;21.55;64.99;100074.76;1764403;78;20995;-39
2021/06/11 10:21:06;;;;;;;4.15;2.72;;;;;;;21.64;65.64;100077.78;1772572;80;21244;-40
2021/06/11 10:23:33;;;;;;;4.85;2.90;;;;;;;21.71;66.50;100077.95;1764457;79;20932;-39
2021/06/11 10:26:02;;;;;;;3.45;2.62;;;;;;;21.77;67.41;100082.20;1762085;80;20967;-39
2021/06/11 10:28:43;;;;;;;3.35;2.55;;;;;;;21.83;67.59;100086.08;1769713;79;20963;-40
2021/06/11 10:31:15;;;;;;;4.87;3.50;;;;;;;21.87;67.30;100083.86;1773929;80;20988;-40
2021/06/11 10:33:52;;;;;;;2.85;2.47;;;;;;;21.88;66.40;100078.79;1778649;79;20991;-41
2021/06/11 10:36:37;;;;;;;5.00;2.67;;;;;;;21.89;66.74;100073.17;1779801;78;21239;-38
2021/06/11 10:39:18;;;;;;;3.05;2.67;;;;;;;21.91;65.69;100068.94;1779266;79;21478;-40
2021/06/11 10:42:08;;;;;;;2.90;2.60;;;;;;;21.92;64.57;100073.33;1774667;78;20967;-39
2021/06/11 10:44:53;;;;;;;3.37;2.52;;;;;;;21.90;64.81;100069.94;1760280;80;20980;-39
2021/06/11 10:47:23;;;;;;;6.72;3.45;;;;;;;21.88;64.29;100067.41;1764799;80;20940;-37
2021/06/11 10:50:01;;;;;;;4.92;2.33;;;;;;;21.89;63.92;100065.54;1762694;80;20952;-39
2021/06/11 10:52:49;;;;;;;4.03;3.00;;;;;;;21.89;61.45;100065.02;1770232;80;20932;-37
2021/06/11 10:55:35;;;;;;;3.58;2.67;;;;;;;21.89;60.63;100050.09;1765105;80;20975;-37
2021/06/11 10:58:12;;;;;;;3.37;2.58;;;;;;;21.94;63.21;100058.56;1757470;80;20968;-38
2021/06/11 11:00:40;;;;;;;2.50;2.27;;;;;;;22.02;63.57;100049.07;1761738;80;20979;-38
2021/06/11 11:03:12;;;;;;;3.42;3.08;;;;;;;22.10;65.00;100052.75;1763428;80;20943;-39
2021/06/11 11:05:41;;;;;;;4.95;2.52;;;;;;;22.14;66.38;100046.80;1739918;80;20968;-38
2021/06/11 11:08:09;;;;;;;3.40;2.37;;;;;;;22.17;66.89;100055.11;1756799;80;21004;-38
2021/06/11 11:10:47;;;;;;;3.40;2.58;;;;;;;22.17;65.69;100055.95;1752104;80;20911;-38
2021/06/11 11:13:28;;;;;;;2.12;1.92;;;;;;;22.18;65.49;100057.66;1753563;80;20912;-37
2021/06/11 11:15:56;;;;;;;2.70;1.90;;;;;;;22.20;64.76;100046.64;1742790;80;20963;-37
2021/06/11 11:18:38;;;;;;;6.87;2.02;;;;;;;22.24;65.02;100050.19;1750787;80;20987;-36
2021/06/11 11:21:27;;;;;;;7.12;2.30;;;;;;;22.32;65.20;100049.31;1762248;80;20975;-39
2021/06/11 11:23:56;;;;;;;9.40;3.90;;;;;;;22.38;64.87;100039.12;1760745;80;20920;-39
2021/06/11 11:26:48;;;;;;;3.72;2.70;;;;;;;22.44;63.40;100046.55;1761640;80;20972;-39
2021/06/11 11:29:17;;;;;;;5.00;3.00;;;;;;;22.44;62.45;100039.75;1767312;80;20936;-40
2021/06/11 11:31:47;;;;;;;4.33;3.07;;;;;;;22.43;63.35;100025.02;1763877;80;21443;-38
2021/06/11 11:34:13;;;;;;;2.77;2.58;;;;;;;22.39;62.82;100034.52;1723720;82;20942;-38
2021/06/11 11:36:39;;;;;;;5.42;4.03;;;;;;;22.32;63.58;100028.94;1745555;80;20968;-38